Time;durP1;ratioP1;P1;durP2;ratioP2;P2;SDS_P1;SDS_P2;PMS_P1;PMS_P2;Temp;Humidity;BMP_temperature;BMP_pressure;BME280_temperature;BME280_humidity;BME280_pressure;Samples;Min_cycle;Max_cycle;Signal;HPM_P1;HPM_P2
2022/11/06 00:00:56;;;;;;;9.10;2.63;;;9.00;99.90;;;;;;4950717;29;20031;-75
2022/11/06 00:03:22;;;;;;;2.53;1.83;;;9.00;99.90;;;;;;4950303;29;20048;-76
2022/11/06 00:08:37;;;;;;;3.28;2.45;;;8.90;99.90;;;;;;4950414;29;20035;-76
2022/11/06 00:11:11;;;;;;;4.15;3.75;;;8.80;99.90;;;;;;4933410;29;20394;-76
2022/11/06 00:13:38;;;;;;;6.80;2.40;;;8.80;99.90;;;;;;4950528;29;20036;-76
2022/11/06 00:16:06;;;;;;;10.05;2.78;;;8.80;99.90;;;;;;4950080;29;20024;-76
2022/11/06 00:18:33;;;;;;;11.73;4.30;;;8.90;99.90;;;;;;4950244;29;20039;-75
2022/11/06 00:21:04;;;;;;;3.95;2.58;;;8.80;99.90;;;;;;4950340;29;20047;-75
2022/11/06 00:23:30;;;;;;;4.40;3.17;;;8.90;99.90;;;;;;4932980;29;20100;-75
2022/11/06 00:25:56;;;;;;;1.75;1.65;;;8.80;99.90;;;;;;4932848;29;20067;-76
2022/11/06 00:28:22;;;;;;;8.80;3.15;;;8.70;99.90;;;;;;4950162;29;20095;-76
2022/11/06 00:30:48;;;;;;;5.53;2.50;;;8.70;99.90;;;;;;4901534;29;20036;-75
2022/11/06 00:33:13;;;;;;;6.43;3.45;;;8.80;99.90;;;;;;4949881;29;20027;-76
2022/11/06 00:35:39;;;;;;;3.80;2.42;;;8.70;99.90;;;;;;4933203;29;20039;-76
2022/11/06 00:38:05;;;;;;;6.28;3.67;;;8.80;99.90;;;;;;4916724;29;20034;-76
2022/11/06 00:40:31;;;;;;;5.72;1.67;;;8.70;99.90;;;;;;4932674;29;20166;-76
2022/11/06 00:42:57;;;;;;;10.15;2.10;;;8.70;99.90;;;;;;4917053;29;20130;-76
2022/11/06 00:45:24;;;;;;;3.70;1.67;;;8.70;99.90;;;;;;4932553;29;20039;-75
2022/11/06 00:47:51;;;;;;;5.20;3.92;;;8.70;99.90;;;;;;4949326;29;20366;-76
2022/11/06 00:50:17;;;;;;;5.05;2.97;;;8.70;99.90;;;;;;4949677;29;20034;-76
2022/11/06 00:52:44;;;;;;;3.10;2.40;;;8.70;99.90;;;;;;4932539;29;20026;-75
2022/11/06 00:55:10;;;;;;;4.28;2.33;;;8.70;99.90;;;;;;4932341;29;20024;-75
2022/11/06 00:57:36;;;;;;;5.15;3.10;;;8.60;99.90;;;;;;4949724;29;20066;-76
2022/11/06 01:00:03;;;;;;;4.28;2.17;;;8.70;99.90;;;;;;4932377;29;20032;-76
2022/11/06 01:02:29;;;;;;;5.20;3.22;;;8.70;99.90;;;;;;4948845;29;20034;-75
2022/11/06 01:04:54;;;;;;;4.30;2.45;;;8.70;99.90;;;;;;4949021;29;20821;-76
2022/11/06 01:07:20;;;;;;;6.43;2.38;;;8.70;99.90;;;;;;4930930;29;20059;-75
2022/11/06 01:09:46;;;;;;;5.90;2.17;;;8.60;99.90;;;;;;4949341;29;20493;-76
2022/11/06 01:12:11;;;;;;;4.25;2.50;;;8.60;99.90;;;;;;4949489;29;20150;-76
2022/11/06 01:14:41;;;;;;;4.68;1.92;;;8.70;99.90;;;;;;4948164;29;20046;-75
2022/11/06 01:17:07;;;;;;;4.97;2.75;;;8.60;99.90;;;;;;4940123;29;20203;-75
2022/11/06 01:19:33;;;;;;;9.02;3.35;;;8.60;99.90;;;;;;4949277;29;20036;-75
2022/11/06 01:21:59;;;;;;;2.65;2.33;;;8.60;99.90;;;;;;4949186;29;20058;-74
2022/11/06 01:24:27;;;;;;;7.00;2.88;;;8.70;99.90;;;;;;4949024;29;20385;-76
2022/11/06 01:26:53;;;;;;;2.97;1.85;;;8.60;99.90;;;;;;4916248;29;20043;-76
2022/11/06 01:29:19;;;;;;;4.65;2.25;;;8.60;99.90;;;;;;4948976;29;20042;-75
2022/11/06 01:31:48;;;;;;;5.65;1.80;;;8.60;99.90;;;;;;4931505;29;20034;-75
2022/11/06 01:34:15;;;;;;;16.25;2.95;;;8.70;99.90;;;;;;4916265;29;20028;-75
2022/11/06 01:36:41;;;;;;;7.68;2.15;;;8.70;99.90;;;;;;4948198;29;20062;-76
2022/11/06 01:39:10;;;;;;;2.92;2.63;;;8.80;99.90;;;;;;4948645;29;20169;-76
2022/11/06 01:41:39;;;;;;;3.88;3.05;;;8.90;99.90;;;;;;4948865;29;20039;-76
2022/11/06 01:44:34;;;;;;;5.97;1.80;;;8.90;99.90;;;;;;4931597;29;20385;-76
2022/11/06 01:47:02;;;;;;;3.70;2.15;;;9.00;99.90;;;;;;4948576;29;20040;-75
2022/11/06 01:49:32;;;;;;;1.77;1.45;;;9.00;99.90;;;;;;4948720;29;20032;-75
2022/11/06 01:52:07;;;;;;;3.10;2.05;;;9.10;99.90;;;;;;4948503;29;20035;-75
2022/11/06 01:54:35;;;;;;;4.40;1.65;;;9.10;99.90;;;;;;4931651;29;20435;-75
2022/11/06 01:57:02;;;;;;;3.53;1.48;;;9.20;99.90;;;;;;4915962;29;20042;-76
2022/11/06 01:59:32;;;;;;;11.48;2.75;;;9.30;99.90;;;;;;4948482;29;20032;-75
2022/11/06 02:01:58;;;;;;;4.47;1.98;;;9.30;99.90;;;;;;4931421;29;20477;-76
2022/11/06 02:04:47;;;;;;;3.63;3.15;;;9.40;99.90;;;;;;4931340;29;20024;-75
2022/11/06 02:07:13;;;;;;;5.88;2.25;;;9.40;99.90;;;;;;4943581;29;20040;-75
2022/11/06 02:09:40;;;;;;;2.72;1.58;;;9.50;99.90;;;;;;4947181;29;20030;-76
2022/11/06 02:12:39;;;;;;;4.45;2.05;;;9.50;99.90;;;;;;4947241;29;20067;-75
2022/11/06 02:15:33;;;;;;;4.38;2.75;;;9.40;99.90;;;;;;4963208;29;20027;-75
2022/11/06 02:18:19;;;;;;;1.35;1.25;;;9.40;99.90;;;;;;4948283;29;20039;-75
2022/11/06 02:20:52;;;;;;;3.17;1.20;;;9.40;99.90;;;;;;4898384;29;20044;-76
2022/11/06 02:23:31;;;;;;;6.22;1.90;;;9.40;99.90;;;;;;4915396;29;20034;-75
2022/11/06 02:26:03;;;;;;;5.13;1.57;;;9.30;99.90;;;;;;4948313;29;20040;-75
2022/11/06 02:28:34;;;;;;;3.80;2.15;;;9.30;99.90;;;;;;4948303;29;20027;-76
2022/11/06 02:31:06;;;;;;;5.35;1.73;;;9.40;99.90;;;;;;4931491;29;20451;-75
2022/11/06 02:33:42;;;;;;;8.57;2.42;;;9.40;99.90;;;;;;4931086;29;20473;-76
2022/11/06 02:36:13;;;;;;;5.70;2.95;;;9.50;99.90;;;;;;4930889;29;20036;-76
2022/11/06 02:38:54;;;;;;;6.38;1.92;;;9.50;99.90;;;;;;4930920;29;20098;-75
2022/11/06 02:41:25;;;;;;;3.15;1.80;;;9.50;99.90;;;;;;4931358;29;20039;-76
2022/11/06 02:43:55;;;;;;;1.92;1.67;;;9.50;99.90;;;;;;4915334;29;20043;-76
2022/11/06 02:46:34;;;;;;;10.57;2.60;;;9.50;99.90;;;;;;4930722;29;20050;-76
2022/11/06 02:49:27;;;;;;;2.90;1.35;;;9.40;99.90;;;;;;4951229;29;20370;-75
2022/11/06 02:51:59;;;;;;;11.77;3.03;;;9.40;99.90;;;;;;4951979;29;20055;-76
2022/11/06 02:54:28;;;;;;;5.32;2.58;;;9.30;99.90;;;;;;4951866;29;20063;-76
2022/11/06 02:56:59;;;;;;;10.23;2.00;;;9.40;99.90;;;;;;4951886;29;20063;-76
2022/11/06 02:59:50;;;;;;;2.97;1.65;;;9.40;99.90;;;;;;4951894;29;20032;-76
2022/11/06 03:02:26;;;;;;;3.47;1.83;;;9.50;99.90;;;;;;4937770;29;20050;-76
2022/11/06 03:05:09;;;;;;;5.65;2.47;;;9.50;99.90;;;;;;4951200;29;20445;-75
2022/11/06 03:07:50;;;;;;;2.10;1.88;;;9.50;99.90;;;;;;4951537;29;20059;-74
2022/11/06 03:10:17;;;;;;;2.85;2.10;;;9.50;99.90;;;;;;4934216;29;20437;-75
2022/11/06 03:12:53;;;;;;;9.75;3.22;;;9.60;99.90;;;;;;4951524;29;20115;-76
2022/11/06 03:15:41;;;;;;;6.20;2.03;;;9.60;99.90;;;;;;4934383;29;20027;-75
2022/11/06 03:18:13;;;;;;;4.20;2.08;;;9.70;99.90;;;;;;4951330;29;20031;-75
2022/11/06 03:21:00;;;;;;;2.63;2.00;;;9.60;99.90;;;;;;4951308;29;20036;-76
2022/11/06 03:23:52;;;;;;;5.57;2.78;;;9.70;99.90;;;;;;4934323;29;20043;-75
2022/11/06 03:26:37;;;;;;;9.30;3.28;;;9.70;99.90;;;;;;4951202;29;20055;-75
2022/11/06 03:29:26;;;;;;;6.70;2.03;;;9.70;99.90;;;;;;4951327;29;20113;-76
2022/11/06 03:32:00;;;;;;;4.90;1.88;;;9.70;99.90;;;;;;4951122;29;20070;-75
2022/11/06 03:34:37;;;;;;;5.47;2.22;;;9.70;99.90;;;;;;4950881;29;20047;-75
2022/11/06 03:37:12;;;;;;;7.53;2.50;;;9.70;99.90;;;;;;4918367;29;20032;-76
2022/11/06 03:39:45;;;;;;;3.65;1.50;;;9.70;99.90;;;;;;4930667;29;20428;-75
2022/11/06 03:42:19;;;;;;;8.27;2.42;;;9.60;99.90;;;;;;4931988;29;20028;-75
2022/11/06 03:44:53;;;;;;;6.65;2.00;;;9.60;99.90;;;;;;4931770;29;20032;-75
2022/11/06 03:47:33;;;;;;;4.10;3.03;;;9.60;99.90;;;;;;4914875;29;20389;-76
2022/11/06 03:50:10;;;;;;;2.95;2.63;;;9.60;99.90;;;;;;4931777;29;20115;-75
2022/11/06 03:52:42;;;;;;;6.22;2.08;;;9.60;99.90;;;;;;4931900;29;20032;-75
2022/11/06 03:55:34;;;;;;;9.48;2.75;;;9.60;99.90;;;;;;4931702;29;20036;-75
2022/11/06 03:58:14;;;;;;;4.00;3.08;;;9.50;99.90;;;;;;4931625;29;20036;-75
2022/11/06 04:00:42;;;;;;;2.97;2.25;;;9.50;99.90;;;;;;4930766;29;20032;-75
2022/11/06 04:03:33;;;;;;;5.30;2.58;;;9.30;99.90;;;;;;4930319;29;20120;-75
2022/11/06 04:06:09;;;;;;;13.20;2.90;;;9.40;99.90;;;;;;4930273;29;20036;-76
2022/11/06 04:14:12;;;;;;;2.30;2.10;;;9.30;99.90;;;;;;4931518;29;20085;-74
2022/11/06 04:16:44;;;;;;;2.35;1.77;;;9.40;99.90;;;;;;4929895;29;20036;-75
2022/11/06 04:19:16;;;;;;;5.10;2.20;;;9.40;99.90;;;;;;4930311;29;20089;-76
2022/11/06 04:22:06;;;;;;;3.05;2.80;;;9.50;99.90;;;;;;4931180;29;20114;-75
2022/11/06 04:28:02;;;;;;;2.88;1.95;;;9.40;99.90;;;;;;4930107;29;20036;-76
2022/11/06 04:30:41;;;;;;;6.15;2.67;;;9.30;99.90;;;;;;4930837;29;20056;-75
2022/11/06 04:33:19;;;;;;;1.80;1.60;;;9.30;99.90;;;;;;4929900;29;20048;-76
2022/11/06 04:35:45;;;;;;;2.72;1.77;;;9.30;99.90;;;;;;4931213;29;20032;-75
2022/11/06 04:38:25;;;;;;;2.00;1.80;;;9.30;99.90;;;;;;4932173;29;20100;-75
2022/11/06 04:41:14;;;;;;;5.53;1.60;;;9.20;99.90;;;;;;4949998;29;20050;-76
2022/11/06 04:43:43;;;;;;;1.63;1.53;;;9.20;99.90;;;;;;4932795;29;20032;-75
2022/11/06 04:46:15;;;;;;;3.33;1.73;;;9.20;99.90;;;;;;4949538;29;20384;-74
2022/11/06 04:48:41;;;;;;;3.13;2.78;;;9.20;99.90;;;;;;4949905;29;20024;-75
2022/11/06 04:51:10;;;;;;;4.50;3.10;;;9.20;99.90;;;;;;4949865;29;20110;-75
2022/11/06 04:53:36;;;;;;;4.15;2.60;;;9.20;99.90;;;;;;4949709;29;20027;-75
2022/11/06 04:56:11;;;;;;;6.80;3.03;;;9.30;99.90;;;;;;4916857;29;20104;-75
2022/11/06 04:58:37;;;;;;;4.18;1.83;;;9.40;99.90;;;;;;4916953;29;20102;-75
2022/11/06 05:01:03;;;;;;;2.75;1.63;;;9.40;99.90;;;;;;4932206;29;20087;-76
2022/11/06 05:03:29;;;;;;;8.95;2.45;;;9.40;99.90;;;;;;4949528;29;20397;-75
2022/11/06 05:05:55;;;;;;;5.55;2.80;;;9.40;99.90;;;;;;4932450;29;20046;-76
2022/11/06 05:08:21;;;;;;;4.38;2.40;;;9.40;99.90;;;;;;4949348;29;20040;-75
2022/11/06 05:10:47;;;;;;;3.63;2.75;;;9.50;99.90;;;;;;4949581;29;20027;-76
2022/11/06 05:13:13;;;;;;;7.57;2.75;;;9.60;99.90;;;;;;4949470;29;20028;-75
2022/11/06 05:15:40;;;;;;;7.57;3.17;;;9.60;99.90;;;;;;4949034;29;20028;-76
2022/11/06 05:18:06;;;;;;;4.03;1.40;;;9.60;99.90;;;;;;4949287;29;20047;-75
2022/11/06 05:20:32;;;;;;;5.97;2.75;;;9.50;99.90;;;;;;4949267;29;20129;-76
2022/11/06 05:23:01;;;;;;;6.50;2.95;;;9.50;99.90;;;;;;4949175;29;20039;-75
2022/11/06 05:25:33;;;;;;;2.20;2.00;;;9.50;99.90;;;;;;4932113;29;20032;-76
2022/11/06 05:27:59;;;;;;;3.10;2.45;;;9.50;99.90;;;;;;4932095;29;20046;-76
2022/11/06 05:30:25;;;;;;;3.65;2.22;;;9.50;99.90;;;;;;4930995;29;20023;-75
2022/11/06 05:32:51;;;;;;;3.58;1.85;;;9.50;99.90;;;;;;4931230;29;20059;-75
2022/11/06 05:35:19;;;;;;;4.45;2.22;;;9.40;99.90;;;;;;4931980;29;20035;-75
2022/11/06 05:37:45;;;;;;;4.63;1.67;;;9.40;99.90;;;;;;4947463;29;20425;-75
2022/11/06 05:40:11;;;;;;;7.68;2.15;;;9.40;99.90;;;;;;4924677;29;20056;-76
2022/11/06 05:42:39;;;;;;;1.45;1.20;;;9.30;99.90;;;;;;4922191;29;20109;-75
2022/11/06 05:45:05;;;;;;;3.88;1.50;;;9.30;99.90;;;;;;4953777;29;20042;-75
2022/11/06 05:47:32;;;;;;;6.70;3.30;;;9.30;99.90;;;;;;4931418;29;20465;-76
2022/11/06 05:49:58;;;;;;;2.95;1.88;;;9.30;99.90;;;;;;4915676;29;20087;-75
2022/11/06 05:52:23;;;;;;;7.32;2.92;;;9.30;99.90;;;;;;4948283;29;20024;-75
2022/11/06 05:54:49;;;;;;;5.18;2.80;;;9.30;99.90;;;;;;4915277;29;20055;-75
2022/11/06 05:57:15;;;;;;;8.10;3.50;;;9.40;99.90;;;;;;4931127;29;20032;-75
2022/11/06 05:59:41;;;;;;;2.13;1.70;;;9.40;99.90;;;;;;4948364;29;20040;-75
2022/11/06 06:02:07;;;;;;;2.70;1.73;;;9.40;99.90;;;;;;4931118;29;20129;-75
2022/11/06 06:04:34;;;;;;;5.50;2.90;;;9.40;99.90;;;;;;4915342;29;20035;-76
2022/11/06 06:06:59;;;;;;;3.30;2.05;;;9.40;99.90;;;;;;4931222;29;20088;-75
2022/11/06 06:09:26;;;;;;;5.10;2.88;;;9.30;99.90;;;;;;4898705;29;20035;-76
2022/11/06 06:11:53;;;;;;;4.13;2.47;;;9.40;99.90;;;;;;4929167;29;20024;-74
2022/11/06 06:14:19;;;;;;;6.32;2.15;;;9.40;99.90;;;;;;4946572;29;20043;-76
2022/11/06 06:16:46;;;;;;;6.95;2.08;;;9.50;99.90;;;;;;4931282;29;20393;-75
2022/11/06 06:19:12;;;;;;;3.53;2.10;;;9.50;99.90;;;;;;4930843;29;20083;-76
2022/11/06 06:21:38;;;;;;;3.03;2.83;;;9.50;99.90;;;;;;4914967;29;20083;-76
2022/11/06 06:24:04;;;;;;;4.35;2.78;;;9.50;99.90;;;;;;4908572;29;20031;-75
2022/11/06 06:26:31;;;;;;;2.22;1.70;;;9.50;99.90;;;;;;4910762;29;20477;-75
2022/11/06 06:29:06;;;;;;;4.15;3.20;;;9.50;99.90;;;;;;4939506;29;20028;-75
2022/11/06 06:31:44;;;;;;;4.95;2.85;;;9.60;99.90;;;;;;4917384;29;20401;-76
2022/11/06 06:34:09;;;;;;;5.30;2.15;;;9.50;99.90;;;;;;4915714;29;20036;-75
2022/11/06 06:36:35;;;;;;;6.32;3.63;;;9.50;99.90;;;;;;4948233;29;20047;-75
2022/11/06 06:39:01;;;;;;;8.70;2.00;;;9.50;99.90;;;;;;4947779;29;20056;-75
2022/11/06 06:41:27;;;;;;;2.20;1.90;;;9.40;99.90;;;;;;4941722;29;20036;-75
2022/11/06 06:43:52;;;;;;;2.58;1.92;;;9.40;99.90;;;;;;4914661;29;20039;-76
2022/11/06 06:46:19;;;;;;;4.43;1.65;;;9.40;99.90;;;;;;4947317;29;20040;-75
2022/11/06 06:48:44;;;;;;;1.70;1.60;;;9.40;99.90;;;;;;4929888;29;20035;-76
2022/11/06 06:51:10;;;;;;;3.60;1.67;;;9.40;99.90;;;;;;4930668;29;20028;-75
2022/11/06 06:53:36;;;;;;;5.40;2.30;;;9.30;99.90;;;;;;4947424;29;20059;-76
2022/11/06 06:56:03;;;;;;;1.92;1.83;;;9.40;99.90;;;;;;4930350;29;20026;-75
2022/11/06 06:58:29;;;;;;;4.53;1.10;;;9.40;99.90;;;;;;4927949;29;20035;-75
2022/11/06 07:01:02;;;;;;;6.25;2.40;;;9.50;99.90;;;;;;4930107;29;20047;-76
2022/11/06 07:03:28;;;;;;;7.30;3.10;;;9.50;99.90;;;;;;4947557;29;20054;-76
2022/11/06 07:05:54;;;;;;;5.28;2.20;;;9.50;99.90;;;;;;4947449;29;20103;-76
2022/11/06 07:08:19;;;;;;;4.40;1.48;;;9.50;99.90;;;;;;4930180;29;20038;-76
2022/11/06 07:10:45;;;;;;;4.00;1.95;;;9.50;99.90;;;;;;4930357;29;20043;-75
2022/11/06 07:13:11;;;;;;;2.08;1.73;;;9.60;99.90;;;;;;4947426;29;20036;-75
2022/11/06 07:15:37;;;;;;;4.30;2.35;;;9.60;99.90;;;;;;4930155;29;20034;-76
2022/11/06 07:18:04;;;;;;;1.25;1.15;;;9.70;99.90;;;;;;4947537;29;20153;-75
2022/11/06 07:20:31;;;;;;;3.88;3.58;;;9.70;99.90;;;;;;4944747;29;20024;-75
2022/11/06 07:22:57;;;;;;;8.63;2.22;;;9.70;99.90;;;;;;4947225;29;20042;-76
2022/11/06 07:25:24;;;;;;;4.85;2.85;;;9.70;99.90;;;;;;4947429;29;20043;-76
2022/11/06 07:27:50;;;;;;;12.15;7.25;;;9.80;99.90;;;;;;4944538;29;20524;-76
2022/11/06 07:30:16;;;;;;;9.60;5.47;;;9.90;99.90;;;;;;4947008;29;20032;-75
2022/11/06 07:32:42;;;;;;;32.42;19.40;;;10.10;99.90;;;;;;4946329;29;20051;-75
2022/11/06 07:35:09;;;;;;;3.67;2.15;;;10.40;99.90;;;;;;4948798;29;20366;-74
2022/11/06 07:37:35;;;;;;;32.95;19.17;;;10.80;99.90;;;;;;4950664;29;20119;-76
2022/11/06 07:40:01;;;;;;;36.53;21.30;;;11.30;99.90;;;;;;4933271;29;20052;-76
2022/11/06 07:42:27;;;;;;;4.22;1.75;;;11.70;99.90;;;;;;4950315;29;20049;-76
2022/11/06 07:45:01;;;;;;;1.55;1.35;;;11.90;99.90;;;;;;4933201;29;20027;-76
2022/11/06 07:47:29;;;;;;;6.78;5.88;;;11.90;99.90;;;;;;4932845;29;20055;-76
2022/11/06 07:49:55;;;;;;;4.72;2.45;;;12.30;99.90;;;;;;4933076;29;20036;-75
2022/11/06 07:52:21;;;;;;;3.00;2.60;;;12.50;99.90;;;;;;4950124;29;20024;-76
2022/11/06 07:54:47;;;;;;;4.57;3.05;;;12.10;99.90;;;;;;4950402;29;20030;-75
2022/11/06 07:57:13;;;;;;;2.38;1.92;;;12.00;99.90;;;;;;4950128;29;20127;-76
2022/11/06 07:59:39;;;;;;;10.68;4.15;;;12.40;99.90;;;;;;4917478;29;20038;-75
2022/11/06 08:02:05;;;;;;;2.85;2.10;;;12.80;99.90;;;;;;4949875;29;20396;-76
2022/11/06 08:04:31;;;;;;;3.50;3.08;;;14.00;99.90;;;;;;4949338;29;20023;-76
2022/11/06 08:06:57;;;;;;;2.83;2.35;;;16.20;99.90;;;;;;4949065;29;20032;-75
2022/11/06 08:09:25;;;;;;;10.85;5.40;;;16.80;99.90;;;;;;4945539;29;20387;-76
2022/11/06 08:11:51;;;;;;;14.73;5.63;;;17.60;99.90;;;;;;4925842;29;20023;-76
2022/11/06 08:14:17;;;;;;;4.07;3.00;;;18.30;99.90;;;;;;4940547;29;20040;-76
2022/11/06 08:16:43;;;;;;;5.55;2.10;;;18.80;99.90;;;;;;4907202;29;20020;-76
2022/11/06 08:19:09;;;;;;;7.65;3.40;;;19.80;99.90;;;;;;4932205;29;20040;-76
2022/11/06 08:21:35;;;;;;;13.52;2.80;;;19.90;99.90;;;;;;4934371;29;20116;-76
2022/11/06 08:24:01;;;;;;;5.53;1.65;;;19.80;99.90;;;;;;4941228;29;20063;-76
2022/11/06 08:26:26;;;;;;;5.75;1.63;;;19.70;99.90;;;;;;4949747;29;20058;-76
2022/11/06 08:28:53;;;;;;;1.95;1.50;;;19.60;99.90;;;;;;4931948;29;20110;-76
2022/11/06 08:31:19;;;;;;;1.63;1.50;;;17.70;99.90;;;;;;4949503;29;20067;-75
2022/11/06 08:33:45;;;;;;;5.13;3.15;;;16.50;99.90;;;;;;4949414;29;20094;-76
2022/11/06 08:36:11;;;;;;;31.17;2.55;;;15.40;99.90;;;;;;4929825;29;20036;-76
2022/11/06 08:38:37;;;;;;;4.25;3.60;;;14.80;99.90;;;;;;4928133;29;20066;-76
2022/11/06 08:41:09;;;;;;;2.45;1.33;;;14.60;99.90;;;;;;4948747;29;20047;-76
2022/11/06 08:43:36;;;;;;;3.97;2.13;;;14.50;99.90;;;;;;4930912;29;20024;-75
2022/11/06 08:46:04;;;;;;;3.78;2.60;;;16.10;99.90;;;;;;4948569;29;20032;-77
2022/11/06 08:48:29;;;;;;;3.53;1.15;;;16.20;99.90;;;;;;4931952;29;22146;-76
2022/11/06 08:50:55;;;;;;;2.88;1.42;;;16.10;99.90;;;;;;4931885;29;20032;-77
2022/11/06 08:53:21;;;;;;;1.15;1.00;;;17.00;99.90;;;;;;4932482;29;20020;-77
2022/11/06 08:55:47;;;;;;;4.40;1.10;;;16.50;99.90;;;;;;4931397;29;20047;-77
2022/11/06 08:58:13;;;;;;;2.50;1.90;;;15.20;99.90;;;;;;4948799;29;20399;-78
2022/11/06 09:00:39;;;;;;;5.72;1.38;;;14.40;99.90;;;;;;4948181;29;20032;-77
2022/11/06 09:03:09;;;;;;;6.18;1.40;;;13.90;99.90;;;;;;4948879;29;20036;-77
2022/11/06 09:05:38;;;;;;;;;;;13.60;99.90;;;;;;4949010;29;20054;-75
2022/11/06 09:08:04;;;;;;;3.83;2.80;;;13.50;99.90;;;;;;4949186;29;20308;-76
2022/11/06 09:10:29;;;;;;;2.65;2.10;;;13.40;99.90;;;;;;4948416;29;20362;-77
2022/11/06 09:12:58;;;;;;;4.38;2.55;;;13.10;99.90;;;;;;4948566;29;20075;-77
2022/11/06 09:15:23;;;;;;;3.65;2.63;;;13.20;99.90;;;;;;4948504;29;20071;-77
2022/11/06 09:17:50;;;;;;;6.25;3.10;;;13.30;99.90;;;;;;4932302;29;20044;-77
2022/11/06 09:20:18;;;;;;;8.85;4.93;;;13.40;99.90;;;;;;4948398;29;20048;-74
2022/11/06 09:22:44;;;;;;;6.80;1.73;;;13.50;99.90;;;;;;4949278;29;20032;-77
2022/11/06 09:25:10;;;;;;;2.72;1.73;;;13.30;99.90;;;;;;4931320;29;20043;-77
2022/11/06 09:27:47;;;;;;;5.90;1.90;;;13.00;99.90;;;;;;4930520;29;20099;-77
2022/11/06 09:30:15;;;;;;;1.35;0.98;;;12.70;99.90;;;;;;4946027;29;20034;-77
2022/11/06 09:32:46;;;;;;;3.65;1.88;;;12.90;99.90;;;;;;4948268;29;20016;-76
2022/11/06 09:35:12;;;;;;;6.55;2.22;;;12.70;99.90;;;;;;4930536;29;20039;-76
2022/11/06 09:37:38;;;;;;;4.60;2.33;;;13.20;99.90;;;;;;4947367;29;20786;-76
2022/11/06 09:40:04;;;;;;;7.97;4.25;;;13.60;99.90;;;;;;4947356;29;20044;-77
2022/11/06 09:43:07;;;;;;;1.92;1.42;;;13.60;99.90;;;;;;4947634;29;20035;-76
2022/11/06 09:45:38;;;;;;;2.38;1.45;;;13.50;99.90;;;;;;4914277;29;20036;-76
2022/11/06 09:48:09;;;;;;;7.10;3.70;;;13.40;99.90;;;;;;4947461;29;20032;-76
2022/11/06 09:50:46;;;;;;;2.15;1.52;;;14.10;99.90;;;;;;4945843;29;20050;-77
2022/11/06 09:53:33;;;;;;;2.15;1.88;;;16.10;99.90;;;;;;4927676;29;20036;-76
2022/11/06 09:56:01;;;;;;;1.98;1.77;;;17.40;99.90;;;;;;4947136;29;20031;-75
2022/11/06 09:58:37;;;;;;;4.93;2.00;;;16.10;99.90;;;;;;4948001;29;20043;-76
2022/11/06 10:01:32;;;;;;;2.50;1.40;;;14.80;99.90;;;;;;4947085;29;20067;-76
2022/11/06 10:04:00;;;;;;;6.70;3.75;;;14.30;99.90;;;;;;4945928;29;20063;-76
2022/11/06 10:06:27;;;;;;;6.15;2.05;;;14.00;99.90;;;;;;4947769;29;20088;-76
2022/11/06 10:09:05;;;;;;;6.40;1.40;;;13.50;99.90;;;;;;4930683;29;20039;-77
2022/11/06 10:12:02;;;;;;;3.78;1.77;;;13.00;99.90;;;;;;4948185;29;20042;-76
2022/11/06 10:14:47;;;;;;;4.70;1.67;;;12.90;99.90;;;;;;4933068;29;20047;-76
2022/11/06 10:17:30;;;;;;;3.03;1.20;;;12.80;99.90;;;;;;4946037;29;20067;-76
2022/11/06 10:20:19;;;;;;;2.55;1.73;;;12.80;99.90;;;;;;4946978;29;20051;-76
2022/11/06 10:23:03;;;;;;;2.72;1.05;;;13.00;99.90;;;;;;4941613;29;20028;-76
2022/11/06 10:25:41;;;;;;;15.43;5.50;;;13.10;99.90;;;;;;4928120;29;20024;-76
2022/11/06 10:28:24;;;;;;;4.63;2.10;;;13.10;99.90;;;;;;4930569;29;20075;-76
2022/11/06 10:31:11;;;;;;;7.68;6.90;;;12.80;99.90;;;;;;4930401;29;20596;-76
2022/11/06 10:34:20;;;;;;;4.57;3.00;;;12.60;99.90;;;;;;4929407;29;20038;-76
2022/11/06 10:36:53;;;;;;;2.47;1.10;;;13.20;99.90;;;;;;4926673;29;20064;-77
2022/11/06 10:39:23;;;;;;;2.85;1.10;;;13.10;99.90;;;;;;4947520;29;20155;-77
2022/11/06 10:42:01;;;;;;;1.25;0.70;;;13.20;99.90;;;;;;4945613;29;20038;-76
2022/11/06 10:44:35;;;;;;;3.70;1.50;;;13.10;99.90;;;;;;4945380;29;20382;-76
2022/11/06 10:47:21;;;;;;;4.35;1.35;;;12.80;99.90;;;;;;4930614;29;20067;-77
2022/11/06 10:49:55;;;;;;;4.03;1.42;;;12.90;99.90;;;;;;4924526;29;20039;-76
2022/11/06 10:52:53;;;;;;;4.60;1.98;;;12.70;99.90;;;;;;4947003;29;20059;-77
2022/11/06 10:55:35;;;;;;;5.32;1.58;;;12.80;99.90;;;;;;4947875;29;20027;-76
2022/11/06 10:58:06;;;;;;;2.47;1.50;;;12.70;99.90;;;;;;4930837;29;20036;-78
2022/11/06 11:00:33;;;;;;;8.30;2.67;;;12.70;99.90;;;;;;4948031;29;20095;-76
2022/11/06 11:03:05;;;;;;;3.97;1.40;;;12.50;99.90;;;;;;4930734;29;20024;-76
2022/11/06 11:05:42;;;;;;;2.30;1.40;;;12.60;99.90;;;;;;4931104;29;20036;-77
2022/11/06 11:08:30;;;;;;;3.92;0.98;;;12.60;99.90;;;;;;4947653;29;20403;-76
2022/11/06 11:11:17;;;;;;;4.88;1.60;;;12.50;99.90;;;;;;4951642;29;20040;-78
2022/11/06 11:13:47;;;;;;;6.80;1.38;;;12.70;99.90;;;;;;4934629;29;20466;-77
2022/11/06 11:16:21;;;;;;;;;;;12.50;99.90;;;;;;4952171;29;20024;-75
2022/11/06 11:18:48;;;;;;;3.63;1.15;;;12.50;99.90;;;;;;4951458;29;19911;-78
2022/11/06 11:21:17;;;;;;;3.15;2.47;;;12.80;99.90;;;;;;4933892;29;20032;-78
2022/11/06 11:24:05;;;;;;;3.88;2.70;;;13.60;99.90;;;;;;4951474;29;20039;-75
2022/11/06 11:26:43;;;;;;;3.50;2.42;;;13.60;99.90;;;;;;4951566;29;20028;-77
2022/11/06 11:29:41;;;;;;;11.32;2.13;;;13.70;99.90;;;;;;4951203;29;20032;-77
2022/11/06 11:32:19;;;;;;;7.00;2.95;;;13.40;99.90;;;;;;4912288;29;20032;-74
2022/11/06 11:34:54;;;;;;;1.85;1.25;;;13.30;99.90;;;;;;4933745;29;20067;-77
2022/11/06 11:37:30;;;;;;;2.58;2.22;;;13.10;99.90;;;;;;4951084;29;20062;-77
2022/11/06 11:40:25;;;;;;;1.33;1.23;;;13.10;99.90;;;;;;4933139;29;20054;-78
2022/11/06 11:42:51;;;;;;;5.30;1.92;;;13.20;99.90;;;;;;4934338;29;20028;-77
2022/11/06 11:45:20;;;;;;;4.22;1.48;;;13.70;99.90;;;;;;4933802;29;20182;-74
2022/11/06 11:47:50;;;;;;;3.45;1.50;;;13.70;99.90;;;;;;4932846;29;20032;-78
2022/11/06 11:50:20;;;;;;;4.60;1.65;;;13.40;99.90;;;;;;4951088;29;20049;-77
2022/11/06 11:52:49;;;;;;;5.90;2.63;;;13.30;99.90;;;;;;4932891;29;20039;-78
2022/11/06 11:55:26;;;;;;;2.05;1.38;;;13.00;99.90;;;;;;4949485;29;20481;-77
2022/11/06 11:57:55;;;;;;;1.63;1.52;;;12.90;99.90;;;;;;4950544;29;20039;-77
2022/11/06 12:00:22;;;;;;;2.60;1.50;;;12.70;99.90;;;;;;4949973;29;20024;-77
2022/11/06 12:02:59;;;;;;;4.82;1.95;;;12.70;99.90;;;;;;4933172;29;20044;-77
2022/11/06 12:05:37;;;;;;;8.57;2.05;;;12.80;99.90;;;;;;4950572;29;20042;-77
2022/11/06 12:08:05;;;;;;;1.75;0.70;;;12.90;99.90;;;;;;4933137;29;20567;-77
2022/11/06 12:10:40;;;;;;;5.65;1.85;;;13.10;99.90;;;;;;4950272;29;20484;-76
2022/11/06 12:13:17;;;;;;;3.35;1.88;;;13.20;99.90;;;;;;4933515;29;20055;-77
2022/11/06 12:15:55;;;;;;;14.68;2.55;;;13.00;99.90;;;;;;4933115;29;20038;-76
2022/11/06 12:18:30;;;;;;;2.75;0.98;;;12.80;99.90;;;;;;4950008;29;20031;-77
2022/11/06 12:21:02;;;;;;;0.90;0.90;;;12.70;99.90;;;;;;4916698;29;20035;-77
2022/11/06 12:23:42;;;;;;;1.13;0.68;;;12.70;99.90;;;;;;4933020;29;20050;-77
2022/11/06 12:26:18;;;;;;;3.28;2.05;;;12.50;99.90;;;;;;4933467;29;20039;-77
2022/11/06 12:28:48;;;;;;;1.55;1.02;;;12.50;99.90;;;;;;4933053;29;20034;-77
2022/11/06 12:31:33;;;;;;;6.22;1.38;;;12.40;99.90;;;;;;4949937;29;20040;-77
2022/11/06 12:34:04;;;;;;;2.80;0.93;;;12.40;99.90;;;;;;4948294;29;20028;-76
2022/11/06 12:36:38;;;;;;;4.90;0.95;;;12.40;99.90;;;;;;4949514;29;20038;-78
2022/11/06 12:39:15;;;;;;;1.45;0.73;;;12.30;99.90;;;;;;4949488;29;20076;-77
2022/11/06 12:41:44;;;;;;;3.33;1.27;;;12.30;99.90;;;;;;4916879;29;20036;-77
2022/11/06 12:44:13;;;;;;;5.88;2.22;;;12.30;99.90;;;;;;4949485;29;20375;-77
2022/11/06 12:46:52;;;;;;;11.30;2.13;;;12.20;99.90;;;;;;4948730;29;20543;-78
2022/11/06 12:49:41;;;;;;;2.90;1.20;;;12.20;99.90;;;;;;4949788;29;20050;-78
2022/11/06 12:52:13;;;;;;;4.22;1.23;;;12.30;99.90;;;;;;4914608;29;20047;-78
2022/11/06 12:55:06;;;;;;;0.90;0.90;;;12.30;99.90;;;;;;4949681;29;20031;-77
2022/11/06 12:58:26;;;;;;;1.88;1.30;;;12.20;99.90;;;;;;4949663;29;20031;-77
2022/11/06 13:01:20;;;;;;;5.53;0.93;;;12.20;99.90;;;;;;4891103;29;20096;-78
2022/11/06 13:04:06;;;;;;;2.47;1.55;;;12.20;99.90;;;;;;4932365;29;20028;-77
2022/11/06 13:07:00;;;;;;;3.30;1.00;;;12.20;99.90;;;;;;4949479;29;20028;-77
2022/11/06 13:10:22;;;;;;;2.25;1.65;;;12.10;99.90;;;;;;4949348;29;20032;-77
2022/11/06 13:13:06;;;;;;;11.73;7.60;;;12.00;99.90;;;;;;4890770;29;20180;-77
2022/11/06 13:15:46;;;;;;;4.78;1.52;;;12.00;99.90;;;;;;4890664;29;20052;-77
2022/11/06 13:18:33;;;;;;;3.15;1.40;;;11.90;99.90;;;;;;4937229;29;20047;-77
2022/11/06 13:21:13;;;;;;;2.55;2.45;;;11.90;99.90;;;;;;4948121;29;20067;-77
2022/11/06 13:24:00;;;;;;;;;;;11.90;99.90;;;;;;4949656;29;20095;-74
2022/11/06 13:26:49;;;;;;;3.95;1.77;;;11.80;99.90;;;;;;4948040;29;20005;-77
2022/11/06 13:29:17;;;;;;;5.18;3.55;;;11.80;99.90;;;;;;4949010;29;20036;-76
2022/11/06 13:32:08;;;;;;;7.70;3.35;;;11.80;99.90;;;;;;4948322;29;20035;-76